Sky Beauty — DSRI6 — position and weather

sailwx.info

Track history (hours):
 
Tides and Currents Weather Stations Pressure Air Temp Water Temp Dewpoint Dewpoint Depression Visibility Wind Speed Wind Dir Waves Ship Positions

Sky Beauty

Last reported at 2018-Jun-08 17:45 UTC. Time now 2018-Jun-21 10:14 UTC.
Position N 34°60' E 129°05'.
Warning: this ship's position is 12 days out of date.

Length 92 m; draft 5 m.

Type: Cargo ship. MMSI: 441874000.

Date/timePositionNaut miles runAvg speedWind from/ knotsBaromVisibWave heightAir tempDewpointWater temp
2018-Jun-08 17:45N 34°60' E 129°05'311.0
2018-Jun-08 17:30N 35°02' E 129°07'5 9.5
2018-Jun-08 17:00N 35°06' E 129°04'1 2.7
2018-Jun-08 16:29N 35°06' E 129°03'0 0.0
2018-Jun-08 15:59N 35°06' E 129°03'0 0.0
2018-Jun-08 15:29N 35°06' E 129°03'0 0.0
2018-Jun-08 14:59N 35°06' E 129°03'0 0.0
2018-Jun-08 14:29N 35°06' E 129°03'0 0.0
2018-Jun-08 13:59N 35°06' E 129°03'0 0.5
2018-Jun-08 13:30N 35°06' E 129°03'3 5.8
2018-Jun-08 13:00N 35°05' E 129°06'263 9.3
2018-Jun-07 08:38N 34°25' E 134°23'111.6
2018-Jun-07 08:30N 34°26' E 134°25'611.2
2018-Jun-07 08:00N 34°28' E 134°31'611.2
2018-Jun-07 07:30N 34°30' E 134°37'611.5
2018-Jun-07 07:00N 34°32' E 134°44'612.2
2018-Jun-07 06:30N 34°35' E 134°51'712.3
2018-Jun-07 05:58N 34°37' E 134°58'511.6
2018-Jun-07 05:31N 34°36' E 135°04'611.0
2018-Jun-07 05:00N 34°36' E 135°11'5 9.3
2018-Jun-07 04:30N 34°39' E 135°16'3 5.8
2018-Jun-07 03:55N 34°42' E 135°13'0 0.0
2018-Jun-07 03:28N 34°42' E 135°13'0 0.0
2018-Jun-07 02:58N 34°42' E 135°13'0 0.0
2018-Jun-07 02:28N 34°42' E 135°13'0 0.0
2018-Jun-07 01:58N 34°42' E 135°13'0 0.0
2018-Jun-07 01:28N 34°42' E 135°13'0 0.0
2018-Jun-07 00:52N 34°42' E 135°13'0 0.0
2018-Jun-07 00:28N 34°42' E 135°13'0 0.0
2018-Jun-06 23:58N 34°42' E 135°13'0 0.0
2018-Jun-06 23:28N 34°42' E 135°13'0 0.0
2018-Jun-06 22:58N 34°42' E 135°13'0 0.0
2018-Jun-06 22:28N 34°42' E 135°13'0 0.0
2018-Jun-06 21:58N 34°42' E 135°13'0 0.0
2018-Jun-06 21:31N 34°42' E 135°13'0 0.0
2018-Jun-06 20:58N 34°42' E 135°13'0 0.0
2018-Jun-06 20:31N 34°42' E 135°13'0 0.0
2018-Jun-06 20:00N 34°42' E 135°13'0 0.0
2018-Jun-06 19:27N 34°42' E 135°13'0 0.0
2018-Jun-06 19:00N 34°42' E 135°13'0 0.0
2018-Jun-06 18:30N 34°42' E 135°13'0 0.0
2018-Jun-06 17:57N 34°42' E 135°13'0 0.0
2018-Jun-06 17:30N 34°42' E 135°13'0 0.0
2018-Jun-06 17:00N 34°42' E 135°13'0 0.0
2018-Jun-06 16:30N 34°42' E 135°13'0 0.0
2018-Jun-06 16:00N 34°42' E 135°13'0 0.0
2018-Jun-06 15:27N 34°42' E 135°13'0 0.0
2018-Jun-06 14:57N 34°42' E 135°13'0 0.0
2018-Jun-06 14:30N 34°42' E 135°13'0 0.0
2018-Jun-06 13:54N 34°42' E 135°13'0 0.0
2018-Jun-06 13:30N 34°42' E 135°13'0 0.0
2018-Jun-06 13:00N 34°42' E 135°13'0 0.0
2018-Jun-06 12:30N 34°42' E 135°13'0 0.0
2018-Jun-06 11:57N 34°42' E 135°13'0 0.0
2018-Jun-06 11:21N 34°42' E 135°13'0 0.0
2018-Jun-06 10:57N 34°42' E 135°13'0 0.0
2018-Jun-06 10:27N 34°42' E 135°13'0 0.0
2018-Jun-06 09:57N 34°42' E 135°13'0 0.0
2018-Jun-06 09:30N 34°42' E 135°13'0 0.0
2018-Jun-06 08:48N 34°42' E 135°13'0 0.0
2018-Jun-06 08:27N 34°42' E 135°13'0 0.0
2018-Jun-06 07:57N 34°42' E 135°13'0 0.0
2018-Jun-06 07:27N 34°42' E 135°13'0 0.0
2018-Jun-06 06:57N 34°42' E 135°13'0 0.0
2018-Jun-06 06:30N 34°42' E 135°13'0 0.0
2018-Jun-06 06:00N 34°42' E 135°13'0 0.0
2018-Jun-06 05:30N 34°42' E 135°13'0 0.0
2018-Jun-06 05:00N 34°42' E 135°13'0 0.0
2018-Jun-06 04:30N 34°42' E 135°13'0 0.0
2018-Jun-06 04:00N 34°42' E 135°13'0 0.0
2018-Jun-06 03:27N 34°42' E 135°13'0 0.0
2018-Jun-06 02:51N 34°42' E 135°13'0 0.0
2018-Jun-06 02:24N 34°42' E 135°13'0 0.0
2018-Jun-06 01:57N 34°42' E 135°13'0 0.0
2018-Jun-06 01:30N 34°42' E 135°13'0 0.0
2018-Jun-06 01:00N 34°42' E 135°13'0 0.0
2018-Jun-06 00:30N 34°42' E 135°13'1 1.7
2018-Jun-06 00:00N 34°41' E 135°14'4 7.8
2018-Jun-05 23:30N 34°39' E 135°18'0 0.1
2018-Jun-05 23:00N 34°39' E 135°18'0 0.0
2018-Jun-05 22:24N 34°39' E 135°18'0 0.0
2018-Jun-05 21:54N 34°39' E 135°18'0 0.0
2018-Jun-05 21:24N 34°39' E 135°18'0 0.0
2018-Jun-05 20:48N 34°39' E 135°18'0 0.0
2018-Jun-05 20:30N 34°39' E 135°18'0 0.0
2018-Jun-05 20:00N 34°39' E 135°18'0 0.0
2018-Jun-05 19:30N 34°39' E 135°18'0 0.0
2018-Jun-05 19:00N 34°39' E 135°18'0 0.0
2018-Jun-05 18:24N 34°39' E 135°18'0 0.0
2018-Jun-05 18:00N 34°39' E 135°18'0 0.0
2018-Jun-05 17:30N 34°39' E 135°18'0 0.0
2018-Jun-05 17:00N 34°39' E 135°18'0 0.0
2018-Jun-05 16:30N 34°39' E 135°18'0 0.1
2018-Jun-05 16:00N 34°39' E 135°18'0 0.0
2018-Jun-05 15:30N 34°39' E 135°18'0 0.0
2018-Jun-05 15:00N 34°39' E 135°18'0 0.0
2018-Jun-05 14:30N 34°39' E 135°18'0 0.2
2018-Jun-05 13:54N 34°39' E 135°18'0 0.0
2018-Jun-05 13:27N 34°39' E 135°18'0 0.0
2018-Jun-05 12:54N 34°39' E 135°18'0 0.0
2018-Jun-05 12:24N 34°39' E 135°18'0 0.0
2018-Jun-05 11:54N 34°39' E 135°18'0 0.0
2018-Jun-05 11:30N 34°39' E 135°18'0 0.0
2018-Jun-05 11:00N 34°39' E 135°18'0 0.0
2018-Jun-05 10:24N 34°39' E 135°18'0 0.0
2018-Jun-05 09:57N 34°39' E 135°18'0 0.0
2018-Jun-05 09:30N 34°39' E 135°18'0 0.0
2018-Jun-05 09:00N 34°39' E 135°18'0 0.0
2018-Jun-05 08:30N 34°39' E 135°18'0 0.0
2018-Jun-05 07:54N 34°39' E 135°18'0 0.0
2018-Jun-05 07:30N 34°39' E 135°18'0 0.0
2018-Jun-05 07:00N 34°39' E 135°18'0 0.0
2018-Jun-05 06:30N 34°39' E 135°18'0 0.0
2018-Jun-05 06:00N 34°39' E 135°18'0 0.0
2018-Jun-05 05:30N 34°39' E 135°18'0 0.0
2018-Jun-05 05:00N 34°39' E 135°18'0 0.0
2018-Jun-05 04:30N 34°39' E 135°18'0 0.0
2018-Jun-05 04:00N 34°39' E 135°18'0 0.0
2018-Jun-05 03:30N 34°39' E 135°18'0 0.1
2018-Jun-05 03:00N 34°39' E 135°18'0 0.1
2018-Jun-05 02:30N 34°39' E 135°18'0 0.0
2018-Jun-05 02:00N 34°39' E 135°18'0 0.0
2018-Jun-05 01:30N 34°39' E 135°18'0 0.1
2018-Jun-05 01:00N 34°39' E 135°18'0 0.0
2018-Jun-05 00:30N 34°39' E 135°18'0 0.0
2018-Jun-05 00:00N 34°39' E 135°18'0 0.0
2018-Jun-04 23:30N 34°39' E 135°18'0 0.0
2018-Jun-04 23:00N 34°39' E 135°18'0 0.0
2018-Jun-04 22:30N 34°39' E 135°18'0 0.0
2018-Jun-04 22:00N 34°39' E 135°18'0 0.0
2018-Jun-04 21:30N 34°39' E 135°18'0 0.0
2018-Jun-04 21:00N 34°39' E 135°18'0 0.0
2018-Jun-04 20:30N 34°39' E 135°18'0 0.0
2018-Jun-04 20:00N 34°39' E 135°18'0 0.0
2018-Jun-04 19:29N 34°39' E 135°18'0 0.0
2018-Jun-04 18:59N 34°39' E 135°18'0 0.1
2018-Jun-04 18:29N 34°39' E 135°18'0 0.0
2018-Jun-04 17:59N 34°39' E 135°18'0 0.1
2018-Jun-04 17:29N 34°39' E 135°18'0 0.1
2018-Jun-04 16:59N 34°39' E 135°18'2 2.9
2018-Jun-04 16:27N 34°38' E 135°16'511.1
2018-Jun-04 16:00N 34°35' E 135°11'510.7
2018-Jun-04 15:30N 34°35' E 135°05'4 7.9
2018-Jun-04 15:00N 34°37' E 135°00'5 9.1
2018-Jun-04 14:30N 34°36' E 134°55'4 8.5
2018-Jun-04 14:00N 34°34' E 134°51'5 9.6
2018-Jun-04 13:30N 34°32' E 134°45'510.7
2018-Jun-04 13:00N 34°30' E 134°39'611.0
2018-Jun-04 12:30N 34°28' E 134°33'611.1
2018-Jun-04 12:00N 34°26' E 134°27'510.9
2018-Jun-04 11:30N 34°24' E 134°21'610.7
2018-Jun-04 10:57N 34°24' E 134°13'1010.6
2018-Jun-04 10:01N 34°26' E 134°01'111.6
2018-Jun-04 09:58N 34°25' E 134°01'245 9.4
2018-Jun-03 07:59N 35°04' E 129°07'4 8.4
2018-Jun-03 07:31N 35°06' E 129°03'0 0.2
2018-Jun-03 07:00N 35°06' E 129°03'0 0.0
2018-Jun-03 06:30N 35°06' E 129°03'0 0.0
2018-Jun-03 06:00N 35°06' E 129°03'0 0.0
2018-Jun-03 05:30N 35°06' E 129°03'0 0.0
2018-Jun-03 05:00N 35°06' E 129°03'0 0.0
2018-Jun-03 04:30N 35°06' E 129°03'0 0.0
2018-Jun-03 04:00N 35°06' E 129°03'0 0.0
2018-Jun-03 03:30N 35°06' E 129°03'0 0.0
2018-Jun-03 03:00N 35°06' E 129°03'0 0.0
2018-Jun-03 02:30N 35°06' E 129°03'0 0.0
2018-Jun-03 02:00N 35°06' E 129°03'0 0.0
2018-Jun-03 01:30N 35°06' E 129°03'0 0.0
2018-Jun-03 01:00N 35°06' E 129°03'0 0.0
2018-Jun-03 00:30N 35°06' E 129°03'0 0.0
2018-Jun-03 00:00N 35°06' E 129°03'0 0.0
2018-Jun-02 23:30N 35°06' E 129°03'0 0.0
2018-Jun-02 23:00N 35°06' E 129°03'0 0.0
2018-Jun-02 22:30N 35°06' E 129°03'0 0.0
2018-Jun-02 21:59N 35°06' E 129°03'1 1.8
2018-Jun-02 21:31N 35°06' E 129°04'5 9.5
2018-Jun-02 21:00N 35°04' E 129°09'  
2018-May-31 10:26N 35°00' E 139°32'510.0
2018-May-31 09:57N 35°03' E 139°37'510.1
2018-May-31 09:29N 35°06' E 139°41'5 9.7
2018-May-31 09:00N 35°10' E 139°45'510.3
2018-May-31 08:30N 35°14' E 139°46'510.3
2018-May-31 08:01N 35°19' E 139°43'510.6
2018-May-31 07:31N 35°24' E 139°42'3 5.9
2018-May-31 07:01N 35°27' E 139°40'0 0.2
2018-May-31 06:28N 35°27' E 139°40'0 0.0
2018-May-31 05:58N 35°27' E 139°40'0 0.0
2018-May-31 05:28N 35°27' E 139°40'0 0.0
2018-May-31 04:58N 35°27' E 139°40'0 0.0
2018-May-31 04:28N 35°27' E 139°40'0 0.0
2018-May-31 03:58N 35°27' E 139°40'0 0.0
2018-May-31 03:28N 35°27' E 139°40'0 0.0
2018-May-31 02:55N 35°27' E 139°40'0 0.0
2018-May-31 02:28N 35°27' E 139°40'0 0.0
2018-May-31 01:55N 35°27' E 139°40'0 0.0
2018-May-31 01:28N 35°27' E 139°40'0 0.0
2018-May-31 00:58N 35°27' E 139°40'0 0.0
2018-May-31 00:28N 35°27' E 139°40'0 0.0
2018-May-30 23:58N 35°27' E 139°40'0 0.0
2018-May-30 23:28N 35°27' E 139°40'0 0.0
2018-May-30 22:58N 35°27' E 139°40'0 0.0
2018-May-30 22:28N 35°27' E 139°40'0 0.0
2018-May-30 21:58N 35°27' E 139°40'0 0.0
2018-May-30 21:28N 35°27' E 139°40'0 0.0
2018-May-30 20:58N 35°27' E 139°40'0 0.0
2018-May-30 20:28N 35°27' E 139°40'0 0.0
2018-May-30 19:58N 35°27' E 139°40'0 0.0
2018-May-30 19:28N 35°27' E 139°40'0 0.0
2018-May-30 18:58N 35°27' E 139°40'0 0.0
2018-May-30 18:28N 35°27' E 139°40'0 0.0
2018-May-30 17:55N 35°27' E 139°40'0 0.0
2018-May-30 17:28N 35°27' E 139°40'0 0.0
2018-May-30 16:58N 35°27' E 139°40'0 0.0
2018-May-30 16:28N 35°27' E 139°40'0 0.0
2018-May-30 15:58N 35°27' E 139°40'0 0.0
2018-May-30 15:28N 35°27' E 139°40'0 0.0
2018-May-30 14:58N 35°27' E 139°40'0 0.0
2018-May-30 14:28N 35°27' E 139°40'0 0.0
2018-May-30 13:58N 35°27' E 139°40'0 0.0
2018-May-30 13:28N 35°27' E 139°40'0 0.0
2018-May-30 12:58N 35°27' E 139°40'0 0.0
2018-May-30 12:28N 35°27' E 139°40'0 0.0
2018-May-30 11:58N 35°27' E 139°40'0 0.0
2018-May-30 11:28N 35°27' E 139°40'0 0.0
2018-May-30 10:58N 35°27' E 139°40'0 0.0
2018-May-30 10:25N 35°27' E 139°40'0 0.0
2018-May-30 09:58N 35°27' E 139°40'0 0.0
2018-May-30 09:28N 35°27' E 139°40'0 0.0
2018-May-30 08:58N 35°27' E 139°40'0 0.0
2018-May-30 08:28N 35°27' E 139°40'0 0.0
2018-May-30 07:58N 35°27' E 139°40'0 0.0
2018-May-30 07:28N 35°27' E 139°40'0 0.0
2018-May-30 06:58N 35°27' E 139°40'0 0.0
2018-May-30 06:28N 35°27' E 139°40'0 0.0
2018-May-30 05:58N 35°27' E 139°40'0 0.0
2018-May-30 05:28N 35°27' E 139°40'0 0.0
2018-May-30 04:58N 35°27' E 139°40'0 0.0
2018-May-30 04:25N 35°27' E 139°40'0 0.0
2018-May-30 03:58N 35°27' E 139°40'0 0.0
2018-May-30 03:28N 35°27' E 139°40'0 0.0
2018-May-30 02:58N 35°27' E 139°40'0 0.0
2018-May-30 02:28N 35°27' E 139°40'0 0.0
2018-May-30 01:58N 35°27' E 139°40'0 0.0
2018-May-30 01:31N 35°27' E 139°40'0 0.0
2018-May-30 01:01N 35°27' E 139°40'0 0.0
2018-May-30 00:31N 35°27' E 139°40'0 0.0
2018-May-30 00:00N 35°27' E 139°40'0 0.0
2018-May-29 23:30N 35°27' E 139°40'1 1.7
2018-May-29 23:00N 35°27' E 139°42'5 9.6
2018-May-29 22:31N 35°22' E 139°43'5 9.6
2018-May-29 22:01N 35°18' E 139°45'5 9.8
2018-May-29 21:31N 35°13' E 139°47'510.7
2018-May-29 21:00N 35°08' E 139°45'510.8
2018-May-29 20:31N 35°04' E 139°41'611.2
2018-May-29 20:01N 35°00' E 139°36'611.3
2018-May-29 19:30N 34°57' E 139°30'611.2
2018-May-29 18:59N 34°53' E 139°25'  
Track history (hours):
 
Tides and Currents Weather Stations Pressure Air Temp Water Temp Dewpoint Dewpoint Depression Visibility Wind Speed Wind Dir Waves Ship Positions

Sky Beauty

Last reported at 2018-Jun-08 17:45 UTC. Time now 2018-Jun-21 10:14 UTC.
Position N 34°60' E 129°05'.
Warning: this ship's position is 12 days out of date.

Length 92 m; draft 5 m.

Type: Cargo ship. MMSI: 441874000.

Date/timePositionNaut miles runAvg speedWind from/ knotsBaromVisibWave heightAir tempDewpointWater temp
2018-Jun-08 17:45N 34°60' E 129°05'311.0
2018-Jun-08 17:30N 35°02' E 129°07'5 9.5
2018-Jun-08 17:00N 35°06' E 129°04'1 2.7
2018-Jun-08 16:29N 35°06' E 129°03'0 0.0
2018-Jun-08 15:59N 35°06' E 129°03'0 0.0
2018-Jun-08 15:29N 35°06' E 129°03'0 0.0
2018-Jun-08 14:59N 35°06' E 129°03'0 0.0
2018-Jun-08 14:29N 35°06' E 129°03'0 0.0
2018-Jun-08 13:59N 35°06' E 129°03'0 0.5
2018-Jun-08 13:30N 35°06' E 129°03'3 5.8
2018-Jun-08 13:00N 35°05' E 129°06'263 9.3
2018-Jun-07 08:38N 34°25' E 134°23'111.6
2018-Jun-07 08:30N 34°26' E 134°25'611.2
2018-Jun-07 08:00N 34°28' E 134°31'611.2
2018-Jun-07 07:30N 34°30' E 134°37'611.5
2018-Jun-07 07:00N 34°32' E 134°44'612.2
2018-Jun-07 06:30N 34°35' E 134°51'712.3
2018-Jun-07 05:58N 34°37' E 134°58'511.6
2018-Jun-07 05:31N 34°36' E 135°04'611.0
2018-Jun-07 05:00N 34°36' E 135°11'5 9.3
2018-Jun-07 04:30N 34°39' E 135°16'3 5.8
2018-Jun-07 03:55N 34°42' E 135°13'0 0.0
2018-Jun-07 03:28N 34°42' E 135°13'0 0.0
2018-Jun-07 02:58N 34°42' E 135°13'0 0.0
2018-Jun-07 02:28N 34°42' E 135°13'0 0.0
2018-Jun-07 01:58N 34°42' E 135°13'0 0.0
2018-Jun-07 01:28N 34°42' E 135°13'0 0.0
2018-Jun-07 00:52N 34°42' E 135°13'0 0.0
2018-Jun-07 00:28N 34°42' E 135°13'0 0.0
2018-Jun-06 23:58N 34°42' E 135°13'0 0.0
2018-Jun-06 23:28N 34°42' E 135°13'0 0.0
2018-Jun-06 22:58N 34°42' E 135°13'0 0.0
2018-Jun-06 22:28N 34°42' E 135°13'0 0.0
2018-Jun-06 21:58N 34°42' E 135°13'0 0.0
2018-Jun-06 21:31N 34°42' E 135°13'0 0.0
2018-Jun-06 20:58N 34°42' E 135°13'0 0.0
2018-Jun-06 20:31N 34°42' E 135°13'0 0.0
2018-Jun-06 20:00N 34°42' E 135°13'0 0.0
2018-Jun-06 19:27N 34°42' E 135°13'0 0.0
2018-Jun-06 19:00N 34°42' E 135°13'0 0.0
2018-Jun-06 18:30N 34°42' E 135°13'0 0.0
2018-Jun-06 17:57N 34°42' E 135°13'0 0.0
2018-Jun-06 17:30N 34°42' E 135°13'0 0.0
2018-Jun-06 17:00N 34°42' E 135°13'0 0.0
2018-Jun-06 16:30N 34°42' E 135°13'0 0.0
2018-Jun-06 16:00N 34°42' E 135°13'0 0.0
2018-Jun-06 15:27N 34°42' E 135°13'0 0.0
2018-Jun-06 14:57N 34°42' E 135°13'0 0.0
2018-Jun-06 14:30N 34°42' E 135°13'0 0.0
2018-Jun-06 13:54N 34°42' E 135°13'0 0.0
2018-Jun-06 13:30N 34°42' E 135°13'0 0.0
2018-Jun-06 13:00N 34°42' E 135°13'0 0.0
2018-Jun-06 12:30N 34°42' E 135°13'0 0.0
2018-Jun-06 11:57N 34°42' E 135°13'0 0.0
2018-Jun-06 11:21N 34°42' E 135°13'0 0.0
2018-Jun-06 10:57N 34°42' E 135°13'0 0.0
2018-Jun-06 10:27N 34°42' E 135°13'0 0.0
2018-Jun-06 09:57N 34°42' E 135°13'0 0.0
2018-Jun-06 09:30N 34°42' E 135°13'0 0.0
2018-Jun-06 08:48N 34°42' E 135°13'0 0.0
2018-Jun-06 08:27N 34°42' E 135°13'0 0.0
2018-Jun-06 07:57N 34°42' E 135°13'0 0.0
2018-Jun-06 07:27N 34°42' E 135°13'0 0.0
2018-Jun-06 06:57N 34°42' E 135°13'0 0.0
2018-Jun-06 06:30N 34°42' E 135°13'0 0.0
2018-Jun-06 06:00N 34°42' E 135°13'0 0.0
2018-Jun-06 05:30N 34°42' E 135°13'0 0.0
2018-Jun-06 05:00N 34°42' E 135°13'0 0.0
2018-Jun-06 04:30N 34°42' E 135°13'0 0.0
2018-Jun-06 04:00N 34°42' E 135°13'0 0.0
2018-Jun-06 03:27N 34°42' E 135°13'0 0.0
2018-Jun-06 02:51N 34°42' E 135°13'0 0.0
2018-Jun-06 02:24N 34°42' E 135°13'0 0.0
2018-Jun-06 01:57N 34°42' E 135°13'0 0.0
2018-Jun-06 01:30N 34°42' E 135°13'0 0.0
2018-Jun-06 01:00N 34°42' E 135°13'0 0.0
2018-Jun-06 00:30N 34°42' E 135°13'1 1.7
2018-Jun-06 00:00N 34°41' E 135°14'4 7.8
2018-Jun-05 23:30N 34°39' E 135°18'0 0.1
2018-Jun-05 23:00N 34°39' E 135°18'0 0.0
2018-Jun-05 22:24N 34°39' E 135°18'0 0.0
2018-Jun-05 21:54N 34°39' E 135°18'0 0.0
2018-Jun-05 21:24N 34°39' E 135°18'0 0.0
2018-Jun-05 20:48N 34°39' E 135°18'0 0.0
2018-Jun-05 20:30N 34°39' E 135°18'0 0.0
2018-Jun-05 20:00N 34°39' E 135°18'0 0.0
2018-Jun-05 19:30N 34°39' E 135°18'0 0.0
2018-Jun-05 19:00N 34°39' E 135°18'0 0.0
2018-Jun-05 18:24N 34°39' E 135°18'0 0.0
2018-Jun-05 18:00N 34°39' E 135°18'0 0.0
2018-Jun-05 17:30N 34°39' E 135°18'0 0.0
2018-Jun-05 17:00N 34°39' E 135°18'0 0.0
2018-Jun-05 16:30N 34°39' E 135°18'0 0.1
2018-Jun-05 16:00N 34°39' E 135°18'0 0.0
2018-Jun-05 15:30N 34°39' E 135°18'0 0.0
2018-Jun-05 15:00N 34°39' E 135°18'0 0.0
2018-Jun-05 14:30N 34°39' E 135°18'0 0.2
2018-Jun-05 13:54N 34°39' E 135°18'0 0.0
2018-Jun-05 13:27N 34°39' E 135°18'0 0.0
2018-Jun-05 12:54N 34°39' E 135°18'0 0.0
2018-Jun-05 12:24N 34°39' E 135°18'0 0.0
2018-Jun-05 11:54N 34°39' E 135°18'0 0.0
2018-Jun-05 11:30N 34°39' E 135°18'0 0.0
2018-Jun-05 11:00N 34°39' E 135°18'0 0.0
2018-Jun-05 10:24N 34°39' E 135°18'0 0.0
2018-Jun-05 09:57N 34°39' E 135°18'0 0.0
2018-Jun-05 09:30N 34°39' E 135°18'0 0.0
2018-Jun-05 09:00N 34°39' E 135°18'0 0.0
2018-Jun-05 08:30N 34°39' E 135°18'0 0.0
2018-Jun-05 07:54N 34°39' E 135°18'0 0.0
2018-Jun-05 07:30N 34°39' E 135°18'0 0.0
2018-Jun-05 07:00N 34°39' E 135°18'0 0.0
2018-Jun-05 06:30N 34°39' E 135°18'0 0.0
2018-Jun-05 06:00N 34°39' E 135°18'0 0.0
2018-Jun-05 05:30N 34°39' E 135°18'0 0.0
2018-Jun-05 05:00N 34°39' E 135°18'0 0.0
2018-Jun-05 04:30N 34°39' E 135°18'0 0.0
2018-Jun-05 04:00N 34°39' E 135°18'0 0.0
2018-Jun-05 03:30N 34°39' E 135°18'0 0.1
2018-Jun-05 03:00N 34°39' E 135°18'0 0.1
2018-Jun-05 02:30N 34°39' E 135°18'0 0.0
2018-Jun-05 02:00N 34°39' E 135°18'0 0.0
2018-Jun-05 01:30N 34°39' E 135°18'0 0.1
2018-Jun-05 01:00N 34°39' E 135°18'0 0.0
2018-Jun-05 00:30N 34°39' E 135°18'0 0.0
2018-Jun-05 00:00N 34°39' E 135°18'0 0.0
2018-Jun-04 23:30N 34°39' E 135°18'0 0.0
2018-Jun-04 23:00N 34°39' E 135°18'0 0.0
2018-Jun-04 22:30N 34°39' E 135°18'0 0.0
2018-Jun-04 22:00N 34°39' E 135°18'0 0.0
2018-Jun-04 21:30N 34°39' E 135°18'0 0.0
2018-Jun-04 21:00N 34°39' E 135°18'0 0.0
2018-Jun-04 20:30N 34°39' E 135°18'0 0.0
2018-Jun-04 20:00N 34°39' E 135°18'0 0.0
2018-Jun-04 19:29N 34°39' E 135°18'0 0.0
2018-Jun-04 18:59N 34°39' E 135°18'0 0.1
2018-Jun-04 18:29N 34°39' E 135°18'0 0.0
2018-Jun-04 17:59N 34°39' E 135°18'0 0.1
2018-Jun-04 17:29N 34°39' E 135°18'0 0.1
2018-Jun-04 16:59N 34°39' E 135°18'2 2.9
2018-Jun-04 16:27N 34°38' E 135°16'511.1
2018-Jun-04 16:00N 34°35' E 135°11'510.7
2018-Jun-04 15:30N 34°35' E 135°05'4 7.9
2018-Jun-04 15:00N 34°37' E 135°00'5 9.1
2018-Jun-04 14:30N 34°36' E 134°55'4 8.5
2018-Jun-04 14:00N 34°34' E 134°51'5 9.6
2018-Jun-04 13:30N 34°32' E 134°45'510.7
2018-Jun-04 13:00N 34°30' E 134°39'611.0
2018-Jun-04 12:30N 34°28' E 134°33'611.1
2018-Jun-04 12:00N 34°26' E 134°27'510.9
2018-Jun-04 11:30N 34°24' E 134°21'610.7
2018-Jun-04 10:57N 34°24' E 134°13'1010.6
2018-Jun-04 10:01N 34°26' E 134°01'111.6
2018-Jun-04 09:58N 34°25' E 134°01'245 9.4
2018-Jun-03 07:59N 35°04' E 129°07'4 8.4
2018-Jun-03 07:31N 35°06' E 129°03'0 0.2
2018-Jun-03 07:00N 35°06' E 129°03'0 0.0
2018-Jun-03 06:30N 35°06' E 129°03'0 0.0
2018-Jun-03 06:00N 35°06' E 129°03'0 0.0
2018-Jun-03 05:30N 35°06' E 129°03'0 0.0
2018-Jun-03 05:00N 35°06' E 129°03'0 0.0
2018-Jun-03 04:30N 35°06' E 129°03'0 0.0
2018-Jun-03 04:00N 35°06' E 129°03'0 0.0
2018-Jun-03 03:30N 35°06' E 129°03'0 0.0
2018-Jun-03 03:00N 35°06' E 129°03'0 0.0
2018-Jun-03 02:30N 35°06' E 129°03'0 0.0
2018-Jun-03 02:00N 35°06' E 129°03'0 0.0
2018-Jun-03 01:30N 35°06' E 129°03'0 0.0
2018-Jun-03 01:00N 35°06' E 129°03'0 0.0
2018-Jun-03 00:30N 35°06' E 129°03'0 0.0
2018-Jun-03 00:00N 35°06' E 129°03'0 0.0
2018-Jun-02 23:30N 35°06' E 129°03'0 0.0
2018-Jun-02 23:00N 35°06' E 129°03'0 0.0
2018-Jun-02 22:30N 35°06' E 129°03'0 0.0
2018-Jun-02 21:59N 35°06' E 129°03'1 1.8
2018-Jun-02 21:31N 35°06' E 129°04'5 9.5
2018-Jun-02 21:00N 35°04' E 129°09'  
2018-May-31 10:26N 35°00' E 139°32'510.0
2018-May-31 09:57N 35°03' E 139°37'510.1
2018-May-31 09:29N 35°06' E 139°41'5 9.7
2018-May-31 09:00N 35°10' E 139°45'510.3
2018-May-31 08:30N 35°14' E 139°46'510.3
2018-May-31 08:01N 35°19' E 139°43'510.6
2018-May-31 07:31N 35°24' E 139°42'3 5.9
2018-May-31 07:01N 35°27' E 139°40'0 0.2
2018-May-31 06:28N 35°27' E 139°40'0 0.0
2018-May-31 05:58N 35°27' E 139°40'0 0.0
2018-May-31 05:28N 35°27' E 139°40'0 0.0
2018-May-31 04:58N 35°27' E 139°40'0 0.0
2018-May-31 04:28N 35°27' E 139°40'0 0.0
2018-May-31 03:58N 35°27' E 139°40'0 0.0
2018-May-31 03:28N 35°27' E 139°40'0 0.0
2018-May-31 02:55N 35°27' E 139°40'0 0.0
2018-May-31 02:28N 35°27' E 139°40'0 0.0
2018-May-31 01:55N 35°27' E 139°40'0 0.0
2018-May-31 01:28N 35°27' E 139°40'0 0.0
2018-May-31 00:58N 35°27' E 139°40'0 0.0
2018-May-31 00:28N 35°27' E 139°40'0 0.0
2018-May-30 23:58N 35°27' E 139°40'0 0.0
2018-May-30 23:28N 35°27' E 139°40'0 0.0
2018-May-30 22:58N 35°27' E 139°40'0 0.0
2018-May-30 22:28N 35°27' E 139°40'0 0.0
2018-May-30 21:58N 35°27' E 139°40'0 0.0
2018-May-30 21:28N 35°27' E 139°40'0 0.0
2018-May-30 20:58N 35°27' E 139°40'0 0.0
2018-May-30 20:28N 35°27' E 139°40'0 0.0
2018-May-30 19:58N 35°27' E 139°40'0 0.0
2018-May-30 19:28N 35°27' E 139°40'0 0.0
2018-May-30 18:58N 35°27' E 139°40'0 0.0
2018-May-30 18:28N 35°27' E 139°40'0 0.0
2018-May-30 17:55N 35°27' E 139°40'0 0.0
2018-May-30 17:28N 35°27' E 139°40'0 0.0
2018-May-30 16:58N 35°27' E 139°40'0 0.0
2018-May-30 16:28N 35°27' E 139°40'0 0.0
2018-May-30 15:58N 35°27' E 139°40'0 0.0
2018-May-30 15:28N 35°27' E 139°40'0 0.0
2018-May-30 14:58N 35°27' E 139°40'0 0.0
2018-May-30 14:28N 35°27' E 139°40'0 0.0
2018-May-30 13:58N 35°27' E 139°40'0 0.0
2018-May-30 13:28N 35°27' E 139°40'0 0.0
2018-May-30 12:58N 35°27' E 139°40'0 0.0
2018-May-30 12:28N 35°27' E 139°40'0 0.0
2018-May-30 11:58N 35°27' E 139°40'0 0.0
2018-May-30 11:28N 35°27' E 139°40'0 0.0
2018-May-30 10:58N 35°27' E 139°40'0 0.0
2018-May-30 10:25N 35°27' E 139°40'0 0.0
2018-May-30 09:58N 35°27' E 139°40'0 0.0
2018-May-30 09:28N 35°27' E 139°40'0 0.0
2018-May-30 08:58N 35°27' E 139°40'0 0.0
2018-May-30 08:28N 35°27' E 139°40'0 0.0
2018-May-30 07:58N 35°27' E 139°40'0 0.0
2018-May-30 07:28N 35°27' E 139°40'0 0.0
2018-May-30 06:58N 35°27' E 139°40'0 0.0
2018-May-30 06:28N 35°27' E 139°40'0 0.0
2018-May-30 05:58N 35°27' E 139°40'0 0.0
2018-May-30 05:28N 35°27' E 139°40'0 0.0
2018-May-30 04:58N 35°27' E 139°40'0 0.0
2018-May-30 04:25N 35°27' E 139°40'0 0.0
2018-May-30 03:58N 35°27' E 139°40'0 0.0
2018-May-30 03:28N 35°27' E 139°40'0 0.0
2018-May-30 02:58N 35°27' E 139°40'0 0.0
2018-May-30 02:28N 35°27' E 139°40'0 0.0
2018-May-30 01:58N 35°27' E 139°40'0 0.0
2018-May-30 01:31N 35°27' E 139°40'0 0.0
2018-May-30 01:01N 35°27' E 139°40'0 0.0
2018-May-30 00:31N 35°27' E 139°40'0 0.0
2018-May-30 00:00N 35°27' E 139°40'0 0.0
2018-May-29 23:30N 35°27' E 139°40'1 1.7
2018-May-29 23:00N 35°27' E 139°42'5 9.6
2018-May-29 22:31N 35°22' E 139°43'5 9.6
2018-May-29 22:01N 35°18' E 139°45'5 9.8
2018-May-29 21:31N 35°13' E 139°47'510.7
2018-May-29 21:00N 35°08' E 139°45'510.8
2018-May-29 20:31N 35°04' E 139°41'611.2
2018-May-29 20:01N 35°00' E 139°36'611.3
2018-May-29 19:30N 34°57' E 139°30'611.2
2018-May-29 18:59N 34°53' E 139°25'  

Dump ship's entire track history